createdAt,value
2022-12-11T00:01:18.067Z,88.20
2022-12-11T00:03:47.286Z,88.00
2022-12-11T00:06:17.378Z,88.10
2022-12-11T00:08:44.474Z,88.10
2022-12-11T00:11:15.957Z,88.50
2022-12-11T00:13:43.325Z,88.20
2022-12-11T00:16:10.777Z,88.10
2022-12-11T00:18:38.020Z,88.10
2022-12-11T00:21:06.977Z,88.30
2022-12-11T00:23:35.775Z,88.00
2022-12-11T00:26:10.257Z,87.90
2022-12-11T00:28:37.205Z,87.90
2022-12-11T00:31:05.821Z,88.00
2022-12-11T00:33:32.770Z,88.00
2022-12-11T00:35:59.714Z,88.00
2022-12-11T00:38:26.631Z,88.00
2022-12-11T00:40:53.471Z,87.90
2022-12-11T00:43:20.332Z,87.90
2022-12-11T00:45:48.397Z,87.70
2022-12-11T00:48:15.316Z,87.50
2022-12-11T00:50:42.444Z,87.20
2022-12-11T00:53:09.439Z,87.40
2022-12-11T00:55:41.205Z,87.30
2022-12-11T00:58:09.300Z,87.20
2022-12-11T01:00:36.328Z,87.20
2022-12-11T01:03:03.620Z,87.20
2022-12-11T01:05:30.900Z,87.50
2022-12-11T01:07:57.803Z,87.70
2022-12-11T01:10:24.971Z,87.50
2022-12-11T01:13:06.885Z,87.50
2022-12-11T01:15:41.626Z,87.00
2022-12-11T01:18:09.922Z,86.90
2022-12-11T01:20:40.187Z,86.90
2022-12-11T01:23:07.378Z,87.00
2022-12-11T01:25:38.187Z,86.80
2022-12-11T01:28:05.696Z,87.30
2022-12-11T01:30:32.923Z,87.30
2022-12-11T01:33:00.862Z,87.50
2022-12-11T01:35:28.568Z,87.80
2022-12-11T01:37:55.650Z,87.70
2022-12-11T01:40:22.878Z,88.10
2022-12-11T01:42:49.789Z,88.00
2022-12-11T01:45:24.653Z,88.00
2022-12-11T01:47:59.584Z,87.90
2022-12-11T01:50:27.489Z,87.90
2022-12-11T01:52:54.594Z,88.00
2022-12-11T01:55:22.345Z,87.90
2022-12-11T01:57:50.914Z,87.90
2022-12-11T02:00:18.283Z,87.90
2022-12-11T02:02:45.369Z,87.90
2022-12-11T02:05:12.979Z,87.80
2022-12-11T02:07:51.475Z,87.60
2022-12-11T02:10:18.930Z,87.60
2022-12-11T02:13:05.123Z,87.60
2022-12-11T02:15:58.021Z,87.30
2022-12-11T02:19:22.991Z,87.40
2022-12-11T02:21:53.125Z,87.50
2022-12-11T02:25:02.919Z,87.80
2022-12-11T02:27:41.033Z,87.30
2022-12-11T02:30:09.094Z,87.40
2022-12-11T02:32:44.133Z,87.90
2022-12-11T02:35:14.203Z,87.80
2022-12-11T02:37:44.027Z,88.00
2022-12-11T02:40:13.913Z,88.10
2022-12-11T02:42:43.547Z,88.20
2022-12-11T02:45:12.445Z,88.30
2022-12-11T02:47:39.675Z,88.40
2022-12-11T02:50:11.393Z,88.00
2022-12-11T02:52:42.005Z,87.80
2022-12-11T02:55:11.331Z,87.70
2022-12-11T02:57:51.703Z,88.00
2022-12-11T03:00:19.398Z,87.90
2022-12-11T03:02:46.428Z,87.80
2022-12-11T03:05:15.435Z,87.70
2022-12-11T03:07:44.425Z,87.60
2022-12-11T03:10:15.572Z,87.50
2022-12-11T03:12:49.212Z,87.70
2022-12-11T03:15:23.049Z,87.40
2022-12-11T03:18:41.254Z,87.70
2022-12-11T03:21:31.153Z,87.20
2022-12-11T03:24:26.194Z,87.30
2022-12-11T03:27:13.328Z,87.30
2022-12-11T03:29:47.071Z,87.40
2022-12-11T03:32:20.045Z,87.40
2022-12-11T03:35:09.880Z,87.80
2022-12-11T03:37:39.407Z,87.50
2022-12-11T03:40:14.357Z,87.40
2022-12-11T03:42:47.607Z,87.10
2022-12-11T03:45:16.495Z,87.40
2022-12-11T03:47:45.238Z,87.30
2022-12-11T03:50:14.480Z,87.40
2022-12-11T03:52:46.021Z,87.40
2022-12-11T03:55:16.995Z,87.40
2022-12-11T03:57:44.258Z,87.50
2022-12-11T04:00:14.295Z,87.50
2022-12-11T04:02:42.041Z,87.50
2022-12-11T04:05:10.216Z,87.50
2022-12-11T04:07:37.885Z,87.40
2022-12-11T04:10:07.061Z,87.20
2022-12-11T04:12:33.882Z,87.30
2022-12-11T04:15:03.479Z,87.50
2022-12-11T04:17:50.420Z,87.30
2022-12-11T04:20:36.485Z,87.40
2022-12-11T04:23:25.331Z,87.30
2022-12-11T04:25:52.243Z,87.60
2022-12-11T04:28:19.077Z,87.30
2022-12-11T04:30:50.293Z,87.10
2022-12-11T04:33:17.261Z,87.10
2022-12-11T04:35:44.614Z,87.00
2022-12-11T04:38:11.519Z,88.50
2022-12-11T04:40:38.298Z,88.30
2022-12-11T04:43:05.146Z,88.40
2022-12-11T04:45:31.985Z,88.70
2022-12-11T04:47:59.629Z,88.70
2022-12-11T04:50:26.862Z,88.60
2022-12-11T04:52:57.126Z,88.60
2022-12-11T04:55:24.514Z,88.50
2022-12-11T04:57:51.321Z,88.40
2022-12-11T05:00:18.181Z,88.50
2022-12-11T05:02:45.066Z,88.80
2022-12-11T05:05:12.450Z,89.00
2022-12-11T05:07:39.764Z,89.00
2022-12-11T05:10:07.240Z,88.90
2022-12-11T05:12:34.086Z,88.90
2022-12-11T05:15:01.036Z,88.70
2022-12-11T05:17:27.836Z,88.80
2022-12-11T05:19:54.701Z,88.80
2022-12-11T05:22:21.581Z,87.40
2022-12-11T05:24:48.415Z,87.40
2022-12-11T05:27:15.301Z,87.50
2022-12-11T05:29:42.166Z,87.20
2022-12-11T05:32:09.242Z,87.20
2022-12-11T05:34:36.126Z,87.00
2022-12-11T05:37:02.945Z,87.30
2022-12-11T05:39:29.838Z,86.90
2022-12-11T05:41:56.669Z,86.50
2022-12-11T05:44:23.537Z,86.50
2022-12-11T05:46:50.419Z,86.40
2022-12-11T05:49:19.865Z,86.50
2022-12-11T05:51:47.049Z,86.10
2022-12-11T05:54:14.182Z,86.20
2022-12-11T05:56:41.106Z,86.20
2022-12-11T05:59:08.082Z,86.20
2022-12-11T06:01:38.039Z,86.50
2022-12-11T06:04:07.456Z,86.40
2022-12-11T06:06:34.702Z,86.40
2022-12-11T06:09:02.035Z,86.60
2022-12-11T06:11:30.639Z,86.20
2022-12-11T06:13:57.942Z,86.40
2022-12-11T06:16:25.183Z,86.20
2022-12-11T06:18:57.020Z,86.60
2022-12-11T06:21:27.870Z,85.80
2022-12-11T06:23:56.614Z,86.20
2022-12-11T06:26:24.277Z,86.40
2022-12-11T06:28:51.383Z,86.20
2022-12-11T06:31:19.026Z,86.40
2022-12-11T06:33:46.308Z,86.20
2022-12-11T06:36:20.497Z,86.30
2022-12-11T06:38:48.153Z,86.00
2022-12-11T06:41:15.489Z,84.70
2022-12-11T06:43:45.688Z,83.40
2022-12-11T06:46:17.930Z,82.50
2022-12-11T06:48:45.786Z,84.20
2022-12-11T06:51:18.295Z,85.70
2022-12-11T06:53:45.623Z,86.50
2022-12-11T06:56:14.532Z,86.80
2022-12-11T06:58:42.618Z,87.30
2022-12-11T07:01:18.466Z,87.60
2022-12-11T07:03:45.808Z,87.70
2022-12-11T07:06:12.954Z,87.60
2022-12-11T07:08:40.212Z,87.20
2022-12-11T07:11:15.135Z,87.90
2022-12-11T07:13:42.289Z,88.20
2022-12-11T07:16:13.110Z,88.60
2022-12-11T07:18:42.081Z,88.70
2022-12-11T07:21:11.380Z,88.60
2022-12-11T07:23:38.313Z,89.00
2022-12-11T07:26:10.669Z,89.10
2022-12-11T07:28:37.557Z,88.70
2022-12-11T07:31:16.845Z,88.40
2022-12-11T07:33:44.367Z,88.00
2022-12-11T07:36:13.969Z,88.10
2022-12-11T07:38:41.121Z,88.10
2022-12-11T07:41:11.140Z,88.60
2022-12-11T07:43:38.086Z,88.40
2022-12-11T07:46:11.990Z,88.60
2022-12-11T07:48:41.099Z,88.70
2022-12-11T07:51:18.236Z,88.60
2022-12-11T07:53:47.325Z,88.50
2022-12-11T07:56:15.778Z,88.40
2022-12-11T07:58:42.831Z,88.60
2022-12-11T08:01:18.529Z,88.30
2022-12-11T08:03:46.927Z,88.20
2022-12-11T08:06:14.644Z,88.00
2022-12-11T08:08:42.156Z,88.30
2022-12-11T08:11:11.757Z,88.50
2022-12-11T08:13:39.093Z,88.60
2022-12-11T08:16:08.972Z,89.00
2022-12-11T08:18:37.220Z,88.80
2022-12-11T08:21:07.896Z,88.40
2022-12-11T08:23:35.375Z,88.20
2022-12-11T08:26:04.286Z,88.60
2022-12-11T08:28:31.411Z,88.70
2022-12-11T08:30:58.594Z,88.50
2022-12-11T08:33:26.164Z,88.60
2022-12-11T08:35:53.014Z,88.70
2022-12-11T08:38:25.229Z,88.30
2022-12-11T08:40:52.538Z,88.10
2022-12-11T08:43:19.524Z,87.80
2022-12-11T08:45:47.149Z,88.10
2022-12-11T08:48:14.144Z,88.00
2022-12-11T08:50:42.816Z,88.40
2022-12-11T08:53:09.648Z,88.50
2022-12-11T08:55:36.550Z,88.20
2022-12-11T08:58:03.763Z,88.20
2022-12-11T09:00:30.661Z,88.00
2022-12-11T09:02:57.530Z,87.70
2022-12-11T09:05:24.481Z,87.50
2022-12-11T09:07:51.400Z,87.30
2022-12-11T09:10:18.562Z,87.30
2022-12-11T09:12:45.457Z,87.30
2022-12-11T09:15:12.727Z,87.30
2022-12-11T09:17:39.877Z,87.20
2022-12-11T09:20:07.334Z,87.70
2022-12-11T09:22:34.249Z,87.50
2022-12-11T09:25:01.157Z,87.50
2022-12-11T09:27:29.265Z,87.80
2022-12-11T09:29:56.106Z,87.10
2022-12-11T09:32:22.920Z,87.30
2022-12-11T09:34:51.824Z,86.70
2022-12-11T09:37:18.788Z,86.70
2022-12-11T09:39:45.654Z,86.80
2022-12-11T09:42:23.714Z,87.20
2022-12-11T09:44:57.151Z,87.30
2022-12-11T09:47:44.066Z,87.40
2022-12-11T09:50:15.572Z,87.40
2022-12-11T09:53:08.562Z,87.90
2022-12-11T09:56:06.577Z,87.90
2022-12-11T09:58:56.226Z,87.60
2022-12-11T10:01:32.083Z,87.40
2022-12-11T10:04:17.926Z,87.20
2022-12-11T10:07:04.268Z,87.20
2022-12-11T10:09:45.844Z,86.90
2022-12-11T10:12:12.837Z,86.50
2022-12-11T10:14:53.326Z,86.50
2022-12-11T10:17:27.611Z,86.50
2022-12-11T10:19:58.062Z,86.30
2022-12-11T10:22:28.018Z,86.20
2022-12-11T10:25:10.817Z,86.20
2022-12-11T10:27:40.422Z,86.30
2022-12-11T10:30:13.259Z,86.20
2022-12-11T10:33:02.867Z,85.90
2022-12-11T10:35:39.254Z,86.00
2022-12-11T10:38:21.230Z,85.80
2022-12-11T10:40:52.985Z,86.00
2022-12-11T10:43:20.166Z,85.80
2022-12-11T10:45:54.786Z,85.70
2022-12-11T10:48:22.261Z,85.60
2022-12-11T10:51:07.207Z,85.60
2022-12-11T10:53:35.056Z,85.80
2022-12-11T10:56:02.809Z,85.30
2022-12-11T10:58:33.993Z,85.40
2022-12-11T11:01:30.590Z,85.30
2022-12-11T11:04:15.205Z,84.50
2022-12-11T11:06:42.117Z,84.30
2022-12-11T11:09:34.143Z,84.90
2022-12-11T11:12:07.424Z,85.00
2022-12-11T11:14:34.616Z,84.30
2022-12-11T11:17:01.843Z,84.20
2022-12-11T11:19:34.912Z,84.90
2022-12-11T11:22:12.760Z,84.70
2022-12-11T11:24:44.230Z,84.90
2022-12-11T11:27:42.206Z,85.00
2022-12-11T11:30:20.930Z,85.00
2022-12-11T11:32:48.503Z,84.60
2022-12-11T11:35:20.662Z,83.70
2022-12-11T11:37:58.219Z,83.20
2022-12-11T11:40:42.481Z,83.70
2022-12-11T11:43:29.325Z,83.60
2022-12-11T11:46:04.385Z,84.00
2022-12-11T11:48:38.181Z,83.80
2022-12-11T11:51:22.106Z,83.30
2022-12-11T11:53:51.628Z,83.30
2022-12-11T11:56:18.526Z,82.90
2022-12-11T11:58:56.235Z,82.40
2022-12-11T12:01:23.676Z,82.20
2022-12-11T12:03:51.706Z,81.90
2022-12-11T12:06:33.541Z,81.90
2022-12-11T12:09:03.064Z,82.70
2022-12-11T12:11:49.734Z,82.80
2022-12-11T12:14:52.563Z,82.60
2022-12-11T12:17:51.994Z,82.80
2022-12-11T12:20:22.109Z,83.30
2022-12-11T12:22:56.651Z,83.60
2022-12-11T12:25:45.515Z,84.20
2022-12-11T12:28:31.154Z,83.90
2022-12-11T12:31:06.613Z,83.90
2022-12-11T12:33:54.476Z,83.00
2022-12-11T12:36:56.873Z,83.10
2022-12-11T12:39:32.489Z,83.00
2022-12-11T12:42:10.077Z,82.30
2022-12-11T12:44:58.596Z,81.00
2022-12-11T12:47:28.755Z,81.40
2022-12-11T12:49:56.314Z,81.10
2022-12-11T12:52:37.305Z,80.90
2022-12-11T12:55:25.338Z,80.70
2022-12-11T12:57:58.293Z,80.20
2022-12-11T13:00:33.018Z,80.00
2022-12-11T13:03:03.471Z,80.10
2022-12-11T13:05:33.926Z,79.80
2022-12-11T13:08:05.797Z,79.70
2022-12-11T13:10:38.466Z,79.80
2022-12-11T13:13:25.535Z,79.50
2022-12-11T13:15:52.371Z,79.60
2022-12-11T13:18:37.082Z,80.20
2022-12-11T13:21:26.426Z,80.60
2022-12-11T13:23:53.317Z,80.50
2022-12-11T13:26:34.043Z,80.80
2022-12-11T13:29:00.939Z,80.70
2022-12-11T13:31:35.743Z,80.70
2022-12-11T13:34:23.752Z,81.00
2022-12-11T13:36:53.250Z,80.80
2022-12-11T13:39:25.188Z,80.10
2022-12-11T13:41:59.801Z,79.60
2022-12-11T13:44:30.728Z,79.40
2022-12-11T13:47:00.382Z,79.40
2022-12-11T13:49:31.237Z,80.10
2022-12-11T13:52:00.246Z,79.80
2022-12-11T13:54:29.239Z,79.90
2022-12-11T13:56:58.414Z,80.30
2022-12-11T13:59:32.822Z,80.90
2022-12-11T14:02:04.871Z,81.30
2022-12-11T14:04:34.058Z,81.50
2022-12-11T14:07:02.149Z,81.90
2022-12-11T14:09:29.439Z,82.00
2022-12-11T14:11:59.156Z,82.20
2022-12-11T14:14:54.933Z,82.10
2022-12-11T14:17:31.538Z,82.20
2022-12-11T14:20:01.079Z,81.60
2022-12-11T14:22:30.079Z,81.70
2022-12-11T14:24:59.658Z,81.80
2022-12-11T14:27:27.580Z,81.60
2022-12-11T14:29:55.088Z,81.70
2022-12-11T14:32:38.519Z,81.60
2022-12-11T14:35:13.701Z,81.10
2022-12-11T14:37:40.704Z,81.00
2022-12-11T14:40:18.190Z,80.10
2022-12-11T14:42:49.350Z,80.50
2022-12-11T14:45:36.751Z,80.10
2022-12-11T14:48:09.774Z,79.60
2022-12-11T14:50:47.798Z,79.60
2022-12-11T14:53:21.015Z,78.10
2022-12-11T14:55:50.348Z,77.70
2022-12-11T14:58:26.886Z,77.00
2022-12-11T15:01:01.165Z,77.10
2022-12-11T15:03:37.353Z,77.40
2022-12-11T15:06:33.082Z,77.40
2022-12-11T15:09:36.239Z,78.20
2022-12-11T15:12:18.536Z,79.20
2022-12-11T15:15:06.398Z,79.90
2022-12-11T15:17:38.314Z,79.60
2022-12-11T15:20:11.729Z,79.40
2022-12-11T15:22:43.227Z,79.50
2022-12-11T15:25:36.457Z,79.40
2022-12-11T15:28:03.450Z,79.40
2022-12-11T15:30:33.984Z,79.80
2022-12-11T15:33:10.468Z,79.90
2022-12-11T15:35:38.944Z,80.40
2022-12-11T15:38:06.472Z,80.60
2022-12-11T15:40:33.439Z,80.60
2022-12-11T15:43:01.985Z,80.60
2022-12-11T15:45:29.078Z,79.00
2022-12-11T15:47:57.285Z,75.90
2022-12-11T15:50:29.555Z,72.30
2022-12-11T15:52:57.271Z,73.30
2022-12-11T15:55:27.430Z,71.80
2022-12-11T15:58:01.936Z,71.60
2022-12-11T16:00:28.859Z,72.90
2022-12-11T16:02:57.113Z,72.80
2022-12-11T16:05:24.409Z,72.80
2022-12-11T16:08:00.379Z,73.00
2022-12-11T16:10:27.541Z,72.50
2022-12-11T16:12:59.402Z,72.40
2022-12-11T16:15:26.838Z,74.50
2022-12-11T16:18:01.527Z,73.50
2022-12-11T16:20:28.689Z,74.20
2022-12-11T16:22:55.499Z,74.10
2022-12-11T16:25:22.393Z,74.70
2022-12-11T16:27:49.269Z,74.70
2022-12-11T16:30:16.120Z,73.40
2022-12-11T16:32:44.437Z,73.40
2022-12-11T16:35:11.453Z,72.00
2022-12-11T16:37:38.495Z,72.60
2022-12-11T16:40:09.525Z,72.80
2022-12-11T16:42:37.710Z,73.20
2022-12-11T16:45:08.524Z,73.60
2022-12-11T16:47:35.520Z,74.10
2022-12-11T16:50:02.527Z,74.60
2022-12-11T16:52:29.575Z,73.50
2022-12-11T16:54:57.858Z,72.90
2022-12-11T16:57:25.176Z,72.90
2022-12-11T16:59:52.363Z,72.30
2022-12-11T17:02:19.746Z,72.20
2022-12-11T17:04:52.101Z,70.60
2022-12-11T17:07:20.672Z,71.00
2022-12-11T17:09:47.591Z,72.50
2022-12-11T17:12:14.447Z,74.00
2022-12-11T17:14:41.387Z,73.50
2022-12-11T17:17:09.273Z,73.80
2022-12-11T17:19:36.635Z,71.30
2022-12-11T17:22:04.650Z,72.30
2022-12-11T17:24:31.553Z,72.50
2022-12-11T17:26:59.711Z,72.40
2022-12-11T17:29:26.564Z,71.90
2022-12-11T17:31:53.528Z,72.50
2022-12-11T17:34:20.310Z,71.70
2022-12-11T17:36:47.221Z,71.70
2022-12-11T17:39:14.102Z,71.90
2022-12-11T17:41:40.862Z,71.30
2022-12-11T17:44:07.761Z,70.50
2022-12-11T17:46:34.624Z,71.30
2022-12-11T17:49:03.994Z,72.50
2022-12-11T17:51:31.205Z,72.70
2022-12-11T17:53:58.445Z,72.40
2022-12-11T17:56:26.125Z,72.40
2022-12-11T17:58:53.123Z,72.70
2022-12-11T18:01:20.368Z,72.10
2022-12-11T18:03:47.611Z,71.90
2022-12-11T18:06:15.971Z,71.40
2022-12-11T18:08:43.434Z,72.00
2022-12-11T18:11:16.547Z,72.00
2022-12-11T18:13:45.011Z,71.80
2022-12-11T18:16:17.636Z,71.90
2022-12-11T18:18:46.337Z,73.10
2022-12-11T18:21:16.373Z,73.70
2022-12-11T18:23:43.417Z,74.30
2022-12-11T18:26:11.586Z,74.70
2022-12-11T18:28:38.486Z,74.70
2022-12-11T18:31:05.671Z,73.40
2022-12-11T18:33:35.244Z,73.60
2022-12-11T18:36:02.101Z,73.70
2022-12-11T18:38:33.574Z,73.60
2022-12-11T18:41:05.228Z,74.20
2022-12-11T18:43:32.227Z,73.60
2022-12-11T18:45:59.137Z,74.20
2022-12-11T18:48:26.016Z,73.40
2022-12-11T18:50:52.877Z,73.30
2022-12-11T18:53:19.962Z,73.60
2022-12-11T18:55:49.245Z,72.40
2022-12-11T18:58:18.973Z,73.20
2022-12-11T19:00:47.287Z,72.40
2022-12-11T19:03:14.362Z,73.50
2022-12-11T19:05:47.341Z,73.70
2022-12-11T19:08:14.318Z,73.90
2022-12-11T19:10:44.018Z,74.20
2022-12-11T19:13:11.720Z,74.40
2022-12-11T19:15:43.458Z,74.30
2022-12-11T19:18:11.456Z,74.70
2022-12-11T19:20:48.946Z,74.80
2022-12-11T19:23:17.040Z,75.10
2022-12-11T19:25:46.875Z,75.40
2022-12-11T19:28:14.650Z,74.30
2022-12-11T19:30:49.362Z,74.00
2022-12-11T19:33:16.990Z,74.20
2022-12-11T19:35:44.329Z,72.60
2022-12-11T19:38:12.744Z,70.90
2022-12-11T19:40:44.025Z,71.90
2022-12-11T19:43:11.300Z,71.50
2022-12-11T19:45:38.382Z,71.80
2022-12-11T19:48:05.652Z,72.30
2022-12-11T19:50:34.625Z,72.60
2022-12-11T19:53:01.423Z,71.60
2022-12-11T19:55:28.911Z,71.10
2022-12-11T19:57:56.202Z,70.80
2022-12-11T20:00:23.156Z,71.40
2022-12-11T20:02:50.033Z,71.40
2022-12-11T20:05:16.903Z,70.20
2022-12-11T20:07:46.847Z,70.00
2022-12-11T20:10:13.828Z,69.60
2022-12-11T20:12:40.743Z,69.10
2022-12-11T20:15:08.024Z,69.00
2022-12-11T20:17:36.831Z,69.50
2022-12-11T20:20:04.247Z,68.00
2022-12-11T20:22:31.058Z,68.60
2022-12-11T20:24:57.914Z,67.30
2022-12-11T20:27:26.153Z,66.90
2022-12-11T20:29:53.016Z,67.10
2022-12-11T20:32:20.710Z,67.30
2022-12-11T20:34:47.838Z,68.60
2022-12-11T20:37:14.752Z,69.30
2022-12-11T20:39:41.929Z,69.90
2022-12-11T20:42:09.848Z,69.50
2022-12-11T20:44:37.171Z,69.50
2022-12-11T20:47:04.161Z,69.40
2022-12-11T20:49:31.725Z,68.80
2022-12-11T20:51:59.842Z,69.10
2022-12-11T20:54:27.134Z,69.00
2022-12-11T20:56:54.216Z,69.10
2022-12-11T20:59:21.247Z,69.10
2022-12-11T21:01:49.285Z,69.60
2022-12-11T21:04:16.827Z,69.50
2022-12-11T21:06:44.206Z,70.00
2022-12-11T21:09:17.887Z,70.10
2022-12-11T21:11:45.089Z,70.00
2022-12-11T21:14:13.412Z,69.70
2022-12-11T21:16:40.838Z,69.50
2022-12-11T21:19:11.273Z,69.30
2022-12-11T21:21:42.822Z,69.80
2022-12-11T21:24:16.528Z,69.30
2022-12-11T21:26:43.574Z,69.10
2022-12-11T21:29:10.597Z,69.00
2022-12-11T21:31:39.344Z,69.10
2022-12-11T21:34:06.498Z,69.90
2022-12-11T21:36:34.394Z,70.70
2022-12-11T21:39:05.833Z,70.20
2022-12-11T21:41:33.204Z,71.00
2022-12-11T21:45:25.945Z,70.10
2022-12-11T21:46:47.402Z,68.70
2022-12-11T21:49:15.652Z,68.40
2022-12-11T21:51:47.084Z,68.40
2022-12-11T21:54:18.932Z,69.30
2022-12-11T21:56:48.512Z,70.60
2022-12-11T21:59:17.129Z,71.40
2022-12-11T22:01:48.757Z,72.20
2022-12-11T22:04:16.727Z,72.30
2022-12-11T22:06:47.063Z,72.60
2022-12-11T22:09:15.985Z,73.20
2022-12-11T22:11:45.175Z,73.10
2022-12-11T22:14:14.117Z,73.40
2022-12-11T22:16:41.568Z,74.00
2022-12-11T22:19:08.582Z,74.00
2022-12-11T22:21:35.950Z,74.20
2022-12-11T22:24:02.913Z,74.50
2022-12-11T22:26:30.246Z,74.60
2022-12-11T22:28:57.229Z,74.80
2022-12-11T22:31:25.932Z,75.40
2022-12-11T22:33:53.980Z,75.30
2022-12-11T22:36:21.834Z,75.00
2022-12-11T22:38:48.957Z,75.30
2022-12-11T22:41:28.209Z,75.30
2022-12-11T22:43:55.665Z,75.40
2022-12-11T22:46:24.855Z,75.90
2022-12-11T22:48:52.634Z,75.90
2022-12-11T22:51:20.141Z,75.90
2022-12-11T22:53:47.617Z,76.10
2022-12-11T22:56:14.736Z,75.90
2022-12-11T22:58:41.807Z,75.90
2022-12-11T23:01:14.612Z,75.30
2022-12-11T23:03:41.667Z,75.70
2022-12-11T23:06:11.337Z,75.40
2022-12-11T23:08:38.523Z,75.60
2022-12-11T23:11:34.908Z,75.70
2022-12-11T23:14:02.767Z,75.30
2022-12-11T23:16:30.054Z,75.40
2022-12-11T23:18:58.250Z,75.40
2022-12-11T23:21:26.322Z,75.30
2022-12-11T23:23:53.777Z,75.10
2022-12-11T23:26:21.514Z,74.60
2022-12-11T23:28:48.567Z,74.00
2022-12-11T23:31:17.319Z,73.20
2022-12-11T23:33:44.733Z,72.50
2022-12-11T23:36:12.595Z,73.10
2022-12-11T23:38:40.312Z,73.10
2022-12-11T23:41:08.286Z,73.30
2022-12-11T23:43:36.606Z,71.60
2022-12-11T23:46:07.098Z,72.20
2022-12-11T23:48:34.189Z,72.10
2022-12-11T23:51:02.865Z,70.30
2022-12-11T23:53:30.070Z,69.90
2022-12-11T23:56:02.241Z,70.20
2022-12-11T23:58:29.075Z,70.50
